createdAt,value
2017-12-09T00:02:10.903Z,502.98
2017-12-09T00:04:38.494Z,462.73
2017-12-09T00:07:06.189Z,374.30
2017-12-09T00:09:33.746Z,393.75
2017-12-09T00:12:02.178Z,363.65
2017-12-09T00:14:29.873Z,340.70
2017-12-09T00:16:57.475Z,278.85
2017-12-09T00:19:25.461Z,269.98
2017-12-09T00:21:53.071Z,202.87
2017-12-09T00:24:20.902Z,195.62
2017-12-09T00:26:48.533Z,268.80
2017-12-09T00:29:16.288Z,250.90
2017-12-09T00:31:44.438Z,261.58
2017-12-09T00:34:12.061Z,276.20
2017-12-09T00:36:39.827Z,234.98
2017-12-09T00:39:07.515Z,229.65
2017-12-09T00:41:35.074Z,249.82
2017-12-09T00:44:02.837Z,272.48
2017-12-09T00:46:31.046Z,259.52
2017-12-09T00:48:58.714Z,278.55
2017-12-09T00:51:26.328Z,270.05
2017-12-09T00:53:53.921Z,250.13
2017-12-09T00:56:21.455Z,248.65
2017-12-09T00:58:49.245Z,244.98
2017-12-09T01:01:16.778Z,251.43
2017-12-09T01:03:44.417Z,258.75
2017-12-09T01:06:11.992Z,255.23
2017-12-09T01:08:39.606Z,278.30
2017-12-09T01:11:07.164Z,264.80
2017-12-09T01:13:34.742Z,275.42
2017-12-09T01:16:13.937Z,269.85
2017-12-09T01:18:53.566Z,208.68
2017-12-09T01:21:21.267Z,189.65
2017-12-09T01:23:49.795Z,175.90
2017-12-09T01:26:17.511Z,138.23
2017-12-09T01:28:46.060Z,127.25
2017-12-09T01:31:13.778Z,157.75
2017-12-09T01:33:41.528Z,156.07
2017-12-09T01:36:09.936Z,148.35
2017-12-09T01:38:37.677Z,151.02
2017-12-09T01:41:05.269Z,134.93
2017-12-09T01:43:33.929Z,124.12
2017-12-09T01:46:01.750Z,141.37
2017-12-09T01:48:30.247Z,133.80
2017-12-09T01:50:59.079Z,145.18
2017-12-09T01:53:26.907Z,149.07
2017-12-09T01:55:54.491Z,116.78
2017-12-09T01:58:22.116Z,125.28
2017-12-09T02:00:49.658Z,141.80
2017-12-09T02:03:17.250Z,126.32
2017-12-09T02:05:45.782Z,141.77
2017-12-09T02:08:13.596Z,132.52
2017-12-09T02:10:41.563Z,131.63
2017-12-09T02:13:09.460Z,143.23
2017-12-09T02:15:37.331Z,140.35
2017-12-09T02:18:05.139Z,147.43
2017-12-09T02:20:32.971Z,127.25
2017-12-09T02:23:00.961Z,126.55
2017-12-09T02:25:29.531Z,160.18
2017-12-09T02:27:57.822Z,165.10
2017-12-09T02:30:26.345Z,166.88
2017-12-09T02:32:54.908Z,153.07
2017-12-09T02:35:22.938Z,144.43
2017-12-09T02:37:50.566Z,135.77
2017-12-09T02:40:18.174Z,132.63
2017-12-09T02:42:45.859Z,168.80
2017-12-09T02:45:13.691Z,176.82
2017-12-09T02:47:41.300Z,199.57
2017-12-09T02:50:09.658Z,179.07
2017-12-09T02:52:37.965Z,176.87
2017-12-09T02:55:05.595Z,161.50
2017-12-09T02:57:33.176Z,171.62
2017-12-09T03:00:00.986Z,164.00
2017-12-09T03:02:28.677Z,155.82
2017-12-09T03:04:56.238Z,182.52
2017-12-09T03:07:24.492Z,157.07
2017-12-09T03:09:52.119Z,152.85
2017-12-09T03:12:20.167Z,172.25
2017-12-09T03:14:48.827Z,163.00
2017-12-09T03:17:16.474Z,155.85
2017-12-09T03:19:45.813Z,142.68
2017-12-09T03:22:13.480Z,136.85
2017-12-09T03:24:41.077Z,143.35
2017-12-09T03:27:08.894Z,144.93
2017-12-09T03:29:36.697Z,154.73
2017-12-09T03:32:04.290Z,129.80
2017-12-09T03:34:32.105Z,124.40
2017-12-09T03:37:00.866Z,141.45
2017-12-09T03:39:28.487Z,130.45
2017-12-09T03:41:56.773Z,114.25
2017-12-09T03:44:24.588Z,123.65
2017-12-09T03:46:52.405Z,126.50
2017-12-09T03:49:19.980Z,122.75
2017-12-09T03:51:47.544Z,102.70
2017-12-09T03:54:15.355Z,113.45
2017-12-09T03:56:44.101Z,113.90
2017-12-09T03:59:12.144Z,98.82
2017-12-09T04:01:39.743Z,98.20
2017-12-09T04:04:07.634Z,95.43
2017-12-09T04:06:35.277Z,103.95
2017-12-09T04:09:03.929Z,95.32
2017-12-09T04:11:31.675Z,109.55
2017-12-09T04:13:59.427Z,94.70
2017-12-09T04:16:27.098Z,103.82
2017-12-09T04:18:54.698Z,106.87
2017-12-09T04:21:22.300Z,104.80
2017-12-09T04:23:50.113Z,111.25
2017-12-09T04:26:17.773Z,117.10
2017-12-09T04:28:45.355Z,115.88
2017-12-09T04:31:12.930Z,106.05
2017-12-09T04:33:40.504Z,109.63
2017-12-09T04:36:08.421Z,117.15
2017-12-09T04:38:36.152Z,121.97
2017-12-09T04:41:03.713Z,115.57
2017-12-09T04:43:32.423Z,114.93
2017-12-09T04:46:00.042Z,116.93
2017-12-09T04:48:27.606Z,114.12
2017-12-09T04:50:55.932Z,108.80
2017-12-09T04:53:23.562Z,124.47
2017-12-09T04:55:51.933Z,100.95
2017-12-09T04:58:20.290Z,116.75
2017-12-09T05:00:48.661Z,93.53
2017-12-09T05:03:16.304Z,86.28
2017-12-09T05:05:43.893Z,104.57
2017-12-09T05:08:12.248Z,89.47
2017-12-09T05:10:40.019Z,105.82
2017-12-09T05:13:07.644Z,74.70
2017-12-09T05:15:36.777Z,76.80
2017-12-09T05:18:04.731Z,69.32
2017-12-09T05:20:32.359Z,93.70
2017-12-09T05:22:59.998Z,75.15
2017-12-09T05:25:28.005Z,77.20
2017-12-09T05:27:56.492Z,94.10
2017-12-09T05:30:24.306Z,90.60
2017-12-09T05:32:51.848Z,95.10
2017-12-09T05:35:19.456Z,87.25
2017-12-09T05:37:47.071Z,89.28
2017-12-09T05:40:14.855Z,90.75
2017-12-09T05:42:42.672Z,88.50
2017-12-09T05:45:10.258Z,112.12
2017-12-09T05:47:38.186Z,102.82
2017-12-09T05:50:06.041Z,98.32
2017-12-09T05:52:33.672Z,106.65
2017-12-09T05:55:01.256Z,88.75
2017-12-09T05:57:29.044Z,102.50
2017-12-09T05:59:58.261Z,73.43
2017-12-09T06:02:25.917Z,89.05
2017-12-09T06:04:53.489Z,81.65
2017-12-09T06:07:21.059Z,82.55
2017-12-09T06:09:48.701Z,73.18
2017-12-09T06:12:18.445Z,88.20
2017-12-09T06:14:46.349Z,83.60
2017-12-09T06:17:14.133Z,83.18
2017-12-09T06:19:41.904Z,83.82
2017-12-09T06:22:09.791Z,80.60
2017-12-09T06:24:37.562Z,81.33
2017-12-09T06:27:06.329Z,80.32
2017-12-09T06:36:34.719Z,75.37
2017-12-09T06:39:02.702Z,77.50
2017-12-09T06:41:30.492Z,75.30
2017-12-09T06:43:58.273Z,82.40
2017-12-09T06:46:26.032Z,78.27
2017-12-09T06:49:01.423Z,74.27
2017-12-09T06:51:30.695Z,82.33
2017-12-09T06:53:59.313Z,79.73
2017-12-09T06:56:27.050Z,87.83
2017-12-09T06:58:54.711Z,83.07
2017-12-09T07:01:22.462Z,83.57
2017-12-09T07:03:50.265Z,100.57
2017-12-09T07:06:18.405Z,92.37
2017-12-09T07:08:46.203Z,94.47
2017-12-09T07:11:14.931Z,96.03
2017-12-09T07:13:42.777Z,103.33
2017-12-09T07:16:11.232Z,92.70
2017-12-09T07:18:39.207Z,101.27
2017-12-09T07:21:07.991Z,110.87
2017-12-09T07:23:37.335Z,105.63
2017-12-09T07:26:05.148Z,96.90
2017-12-09T07:28:32.812Z,110.37
2017-12-09T07:31:01.243Z,108.03
2017-12-09T07:33:28.915Z,101.77
2017-12-09T07:35:58.358Z,109.67
2017-12-09T07:38:26.411Z,95.50
2017-12-09T07:40:54.827Z,101.50
2017-12-09T07:43:29.047Z,95.60
2017-12-09T07:46:04.029Z,93.07
2017-12-09T07:48:31.983Z,84.40
2017-12-09T07:51:01.133Z,83.20
2017-12-09T07:53:30.685Z,87.50
2017-12-09T07:56:13.535Z,92.67
2017-12-09T07:58:42.071Z,88.80
2017-12-09T08:01:09.763Z,85.67
2017-12-09T08:03:37.897Z,101.50
2017-12-09T08:06:05.573Z,112.20
2017-12-09T08:08:34.988Z,101.07
2017-12-09T08:11:02.790Z,102.38
2017-12-09T08:13:31.407Z,97.47
2017-12-09T08:16:00.262Z,84.40
2017-12-09T08:18:28.098Z,96.47
2017-12-09T08:23:28.437Z,100.78
2017-12-09T08:25:56.121Z,96.57
2017-12-09T08:28:23.776Z,98.00
2017-12-09T08:30:52.063Z,94.60
2017-12-09T08:33:19.795Z,85.87
2017-12-09T08:35:48.095Z,95.53
2017-12-09T08:38:15.833Z,100.53
2017-12-09T08:40:43.930Z,111.60
2017-12-09T08:43:12.643Z,111.23
2017-12-09T08:45:40.420Z,99.43
2017-12-09T08:48:08.116Z,97.43
2017-12-09T08:50:36.016Z,116.87
2017-12-09T08:53:03.759Z,129.23
2017-12-09T08:55:31.412Z,126.03
2017-12-09T08:57:59.021Z,102.10
2017-12-09T09:00:27.093Z,109.83
2017-12-09T09:02:55.506Z,57.92
2017-12-09T09:05:23.184Z,79.30
2017-12-09T09:07:50.883Z,71.07
2017-12-09T09:10:18.636Z,67.82
2017-12-09T09:12:46.237Z,82.40
2017-12-09T09:15:14.131Z,64.57
2017-12-09T09:17:41.761Z,56.43
2017-12-09T09:20:09.386Z,56.87
2017-12-09T09:22:36.981Z,54.67
2017-12-09T09:25:04.554Z,57.90
2017-12-09T09:27:32.342Z,57.97
2017-12-09T09:30:00.125Z,56.77
2017-12-09T09:32:27.829Z,61.20
2017-12-09T09:34:55.639Z,55.33
2017-12-09T09:37:23.244Z,53.77
2017-12-09T09:39:51.590Z,60.27
2017-12-09T09:42:19.425Z,49.97
2017-12-09T09:44:47.194Z,53.50
2017-12-09T09:47:14.826Z,61.67
2017-12-09T09:49:42.397Z,53.90
2017-12-09T09:52:10.101Z,73.50
2017-12-09T09:54:37.965Z,65.57
2017-12-09T09:57:05.617Z,66.90
2017-12-09T09:59:33.469Z,51.13
2017-12-09T10:02:02.954Z,54.33
2017-12-09T10:04:30.599Z,48.90
2017-12-09T10:06:58.186Z,49.57
2017-12-09T10:09:25.793Z,53.43
2017-12-09T10:11:53.542Z,57.43
2017-12-09T10:14:21.101Z,46.33
2017-12-09T10:16:48.663Z,46.70
2017-12-09T10:19:16.260Z,46.23
2017-12-09T10:21:44.050Z,48.87
2017-12-09T10:24:11.760Z,42.70
2017-12-09T10:26:39.319Z,38.07
2017-12-09T10:29:07.674Z,39.17
2017-12-09T10:31:35.275Z,44.50
2017-12-09T10:34:02.917Z,40.07
2017-12-09T10:36:30.539Z,38.87
2017-12-09T10:38:58.117Z,38.80
2017-12-09T10:41:25.720Z,48.37
2017-12-09T10:43:53.324Z,41.33
2017-12-09T10:46:20.916Z,42.37
2017-12-09T10:48:48.710Z,43.27
2017-12-09T10:51:16.315Z,45.10
2017-12-09T10:53:43.974Z,59.03
2017-12-09T10:56:11.801Z,50.60
2017-12-09T10:58:39.733Z,32.47
2017-12-09T11:01:07.330Z,31.60
2017-12-09T11:03:34.937Z,40.97
2017-12-09T11:06:02.570Z,34.77
2017-12-09T11:08:30.164Z,31.10
2017-12-09T11:10:57.796Z,33.33
2017-12-09T11:13:25.361Z,34.37
2017-12-09T11:15:53.030Z,32.60
2017-12-09T11:18:20.596Z,16.97
2017-12-09T11:20:48.247Z,23.83
2017-12-09T11:23:15.866Z,21.57
2017-12-09T11:25:43.984Z,21.63
2017-12-09T11:28:11.606Z,32.70
2017-12-09T11:30:39.192Z,38.13
2017-12-09T11:33:06.754Z,31.57
2017-12-09T11:35:34.830Z,30.93
2017-12-09T11:38:02.480Z,34.73
2017-12-09T11:40:30.098Z,21.67
2017-12-09T11:42:57.701Z,40.27
2017-12-09T11:45:25.298Z,29.53
2017-12-09T11:47:52.862Z,34.63
2017-12-09T11:50:20.482Z,55.50
2017-12-09T11:52:48.101Z,45.27
2017-12-09T11:55:15.710Z,25.70
2017-12-09T11:57:43.322Z,12.40
2017-12-09T12:00:10.951Z,31.53
2017-12-09T12:02:39.563Z,33.03
2017-12-09T12:05:07.134Z,5.90
2017-12-09T12:07:34.744Z,3.33
2017-12-09T12:10:02.383Z,3.23
2017-12-09T12:12:29.960Z,8.47
2017-12-09T12:14:57.552Z,3.10
2017-12-09T12:17:25.149Z,7.57
2017-12-09T12:19:52.761Z,6.63
2017-12-09T12:22:20.337Z,5.30
2017-12-09T12:24:48.129Z,9.43
2017-12-09T12:27:15.713Z,22.17
2017-12-09T12:29:43.633Z,23.53
2017-12-09T12:32:11.288Z,11.50
2017-12-09T12:34:39.089Z,7.40
2017-12-09T12:37:06.852Z,5.70
2017-12-09T12:39:34.471Z,4.40
2017-12-09T12:42:02.273Z,7.00
2017-12-09T12:44:29.823Z,9.20
2017-12-09T12:46:57.468Z,7.30
2017-12-09T12:49:25.109Z,4.60
2017-12-09T12:52:09.156Z,7.70
2017-12-09T12:54:37.631Z,2.97
2017-12-09T12:57:08.693Z,3.70
2017-12-09T13:02:35.784Z,3.43
2017-12-09T13:05:08.418Z,5.97
2017-12-09T13:07:39.856Z,2.87
2017-12-09T13:10:09.116Z,4.03
2017-12-09T13:12:44.087Z,3.50
2017-12-09T13:15:13.738Z,5.33
2017-12-09T13:17:50.168Z,15.13
2017-12-09T13:20:40.836Z,10.23
2017-12-09T13:23:12.637Z,11.10
2017-12-09T13:28:29.458Z,6.53
2017-12-09T13:30:57.136Z,2.90
2017-12-09T13:33:24.735Z,4.10
2017-12-09T13:35:53.161Z,4.33
2017-12-09T13:38:21.085Z,8.37
2017-12-09T13:40:48.886Z,5.10
2017-12-09T13:43:17.406Z,7.03
2017-12-09T13:45:46.229Z,6.50
2017-12-09T13:48:20.328Z,4.57
2017-12-09T13:50:58.274Z,3.93
2017-12-09T13:56:16.629Z,10.13
2017-12-09T13:58:46.980Z,4.97
2017-12-09T14:01:14.814Z,4.63
2017-12-09T14:03:42.392Z,3.50
2017-12-09T14:06:09.966Z,3.30
2017-12-09T14:08:37.559Z,3.30
2017-12-09T14:11:05.162Z,3.13
2017-12-09T14:13:32.888Z,6.07
2017-12-09T14:16:00.501Z,6.33
2017-12-09T14:18:28.962Z,3.27
2017-12-09T14:20:56.573Z,6.20
2017-12-09T14:23:26.480Z,10.23
2017-12-09T14:29:02.110Z,9.23
2017-12-09T14:31:30.268Z,6.60
2017-12-09T14:33:57.892Z,3.37
2017-12-09T14:36:25.515Z,4.63
2017-12-09T14:38:53.285Z,3.50
2017-12-09T14:41:20.965Z,5.70
2017-12-09T14:43:48.591Z,8.07
2017-12-09T14:46:23.666Z,8.47
2017-12-09T14:48:51.223Z,7.60
2017-12-09T14:51:19.167Z,5.60
2017-12-09T14:53:46.819Z,3.87
2017-12-09T14:56:14.392Z,6.80
2017-12-09T14:58:41.990Z,7.60
2017-12-09T15:01:09.993Z,4.50
2017-12-09T15:03:37.590Z,4.73
2017-12-09T15:06:05.460Z,3.90
2017-12-09T15:08:33.320Z,4.80
2017-12-09T15:11:01.866Z,5.70
2017-12-09T15:13:29.657Z,15.90
2017-12-09T15:15:57.635Z,17.57
2017-12-09T15:18:25.393Z,9.40
2017-12-09T15:20:53.015Z,20.80
2017-12-09T15:23:20.727Z,14.67
2017-12-09T15:25:48.406Z,13.90
2017-12-09T15:28:16.243Z,11.13
2017-12-09T15:30:44.032Z,22.23
2017-12-09T15:33:11.710Z,11.07
2017-12-09T15:35:39.318Z,8.57
2017-12-09T15:38:07.720Z,6.30
2017-12-09T15:40:35.423Z,11.93
2017-12-09T15:43:02.971Z,9.83
2017-12-09T15:45:30.644Z,13.33
2017-12-09T15:47:58.974Z,6.57
2017-12-09T15:50:27.413Z,14.93
2017-12-09T15:52:55.228Z,9.20
2017-12-09T15:55:23.531Z,10.20
2017-12-09T15:57:51.276Z,4.50
2017-12-09T16:00:19.299Z,12.40
2017-12-09T16:02:46.883Z,14.30
2017-12-09T16:05:14.458Z,17.07
2017-12-09T16:07:42.751Z,15.60
2017-12-09T16:10:13.315Z,11.30
2017-12-09T16:12:41.273Z,15.40
2017-12-09T16:15:09.226Z,13.97
2017-12-09T16:17:37.283Z,20.37
2017-12-09T16:20:04.882Z,15.67
2017-12-09T16:22:32.464Z,10.47
2017-12-09T16:25:00.324Z,12.73
2017-12-09T16:27:27.966Z,6.73
2017-12-09T16:29:56.724Z,7.33
2017-12-09T16:32:24.465Z,5.20
2017-12-09T16:34:52.051Z,8.30
2017-12-09T16:37:19.720Z,14.87
2017-12-09T16:39:47.401Z,14.00
2017-12-09T16:42:14.986Z,16.63
2017-12-09T16:44:42.554Z,14.53
2017-12-09T16:47:10.162Z,12.27
2017-12-09T16:49:37.789Z,7.73
2017-12-09T16:52:05.710Z,13.63
2017-12-09T16:54:33.317Z,13.97
2017-12-09T16:57:00.904Z,15.60
2017-12-09T16:59:29.342Z,29.97
2017-12-09T17:01:57.393Z,16.70
2017-12-09T17:04:25.302Z,16.20
2017-12-09T17:06:52.856Z,14.23
2017-12-09T17:09:21.910Z,16.00
2017-12-09T17:11:49.557Z,17.13
2017-12-09T17:14:18.002Z,11.50
2017-12-09T17:16:45.607Z,17.03
2017-12-09T17:19:13.496Z,16.90
2017-12-09T17:21:41.145Z,16.53
2017-12-09T17:24:08.878Z,23.97
2017-12-09T17:26:36.790Z,166.23
2017-12-09T17:29:04.581Z,221.87
2017-12-09T17:31:32.339Z,495.13
2017-12-09T17:34:00.226Z,1272.40
2017-12-09T17:36:28.165Z,633.47
2017-12-09T17:38:55.946Z,598.30
2017-12-09T17:41:24.031Z,274.10
2017-12-09T17:43:52.496Z,18.83
2017-12-09T17:46:20.205Z,21.60
2017-12-09T17:48:48.705Z,31.33
2017-12-09T17:51:16.359Z,23.67
2017-12-09T17:53:44.450Z,28.10
2017-12-09T17:56:12.074Z,25.00
2017-12-09T17:58:39.717Z,18.03
2017-12-09T18:01:09.486Z,16.63
2017-12-09T18:03:38.641Z,18.93
2017-12-09T18:06:08.909Z,19.57
2017-12-09T18:08:37.612Z,17.50
2017-12-09T18:11:05.579Z,19.10
2017-12-09T18:13:33.376Z,30.10
2017-12-09T18:16:01.112Z,29.73
2017-12-09T18:18:29.716Z,29.97
2017-12-09T18:20:58.044Z,41.87
2017-12-09T18:23:26.098Z,33.47
2017-12-09T18:25:54.636Z,25.47
2017-12-09T18:28:22.452Z,39.57
2017-12-09T18:30:50.128Z,35.23
2017-12-09T18:33:18.587Z,26.00
2017-12-09T18:35:47.278Z,23.30
2017-12-09T18:38:15.018Z,18.83
2017-12-09T18:40:42.722Z,14.37
2017-12-09T18:43:10.382Z,14.17
2017-12-09T18:45:38.425Z,25.53
2017-12-09T18:48:06.234Z,24.20
2017-12-09T18:50:34.461Z,38.40
2017-12-09T18:53:02.492Z,65.70
2017-12-09T18:55:32.097Z,54.37
2017-12-09T18:58:00.077Z,27.60
2017-12-09T19:00:29.322Z,17.43
2017-12-09T19:02:57.411Z,26.70
2017-12-09T19:05:26.788Z,19.03
2017-12-09T19:07:57.242Z,18.30
2017-12-09T19:10:26.427Z,25.40
2017-12-09T19:13:00.367Z,26.80
2017-12-09T19:15:28.046Z,17.90
2017-12-09T19:17:55.730Z,13.30
2017-12-09T19:20:23.565Z,16.70
2017-12-09T19:22:51.211Z,15.07
2017-12-09T19:25:19.751Z,14.10
2017-12-09T19:27:47.845Z,17.33
2017-12-09T19:30:15.470Z,15.50
2017-12-09T19:32:43.395Z,20.50
2017-12-09T19:35:11.404Z,14.83
2017-12-09T19:37:39.047Z,21.67
2017-12-09T19:40:06.698Z,16.47
2017-12-09T19:42:34.412Z,20.50
2017-12-09T19:45:02.019Z,17.03
2017-12-09T19:47:29.661Z,17.47
2017-12-09T19:49:57.258Z,18.63
2017-12-09T19:52:25.701Z,17.97
2017-12-09T19:54:53.543Z,21.80
2017-12-09T19:57:21.380Z,29.25
2017-12-09T19:59:49.686Z,17.97
2017-12-09T20:02:18.008Z,15.48
2017-12-09T20:04:46.323Z,10.75
2017-12-09T20:07:13.956Z,13.48
2017-12-09T20:09:41.800Z,14.07
2017-12-09T20:12:09.546Z,12.30
2017-12-09T20:14:38.067Z,15.73
2017-12-09T20:17:06.034Z,14.73
2017-12-09T20:19:33.715Z,15.20
2017-12-09T20:22:01.350Z,16.35
2017-12-09T20:24:28.959Z,14.73
2017-12-09T20:26:57.201Z,15.68
2017-12-09T20:29:25.088Z,12.30
2017-12-09T20:31:52.699Z,16.98
2017-12-09T20:34:20.347Z,22.73
2017-12-09T20:36:48.795Z,12.95
2017-12-09T20:39:17.403Z,19.83
2017-12-09T20:41:45.259Z,15.40
2017-12-09T20:44:12.910Z,12.55
2017-12-09T20:46:41.565Z,11.97
2017-12-09T20:49:09.410Z,17.50
2017-12-09T20:51:37.062Z,10.80
2017-12-09T20:54:05.624Z,14.43
2017-12-09T20:56:33.379Z,11.83
2017-12-09T20:59:01.130Z,15.27
2017-12-09T21:01:28.850Z,13.52
2017-12-09T21:03:56.522Z,16.40
2017-12-09T21:06:24.453Z,14.43
2017-12-09T21:08:52.283Z,14.33
2017-12-09T21:11:19.977Z,16.33
2017-12-09T21:13:47.757Z,23.73
2017-12-09T21:16:15.994Z,21.30
2017-12-09T21:18:43.649Z,16.27
2017-12-09T21:21:11.285Z,20.07
2017-12-09T21:23:39.061Z,18.57
2017-12-09T21:26:07.225Z,12.97
2017-12-09T21:28:35.074Z,16.80
2017-12-09T21:31:02.712Z,13.90
2017-12-09T21:33:30.474Z,15.40
2017-12-09T21:35:58.294Z,15.73
2017-12-09T21:38:26.005Z,22.27
2017-12-09T21:40:53.617Z,17.40
2017-12-09T21:43:21.448Z,18.77
2017-12-09T21:45:49.152Z,17.50
2017-12-09T21:48:16.781Z,23.70
2017-12-09T21:50:45.271Z,17.00
2017-12-09T21:53:13.139Z,19.03
2017-12-09T21:55:41.110Z,19.80
2017-12-09T21:58:08.720Z,18.53
2017-12-09T22:00:36.527Z,24.07
2017-12-09T22:03:05.131Z,22.17
2017-12-09T22:05:32.807Z,23.57
2017-12-09T22:08:00.518Z,24.03
2017-12-09T22:10:28.079Z,23.10
2017-12-09T22:12:55.667Z,28.53
2017-12-09T22:15:23.314Z,22.63
2017-12-09T22:17:51.139Z,20.57
2017-12-09T22:20:19.123Z,38.17
2017-12-09T22:22:47.632Z,8.75
2017-12-09T22:25:15.612Z,8.68
2017-12-09T22:27:44.529Z,3.17
2017-12-09T22:30:12.286Z,22.83
2017-12-09T22:32:40.820Z,2.60
2017-12-09T22:35:10.217Z,2.75
2017-12-09T22:37:38.956Z,1.95
2017-12-09T22:40:06.597Z,2.35
2017-12-09T22:42:34.276Z,2.70
2017-12-09T22:45:02.096Z,2.40
2017-12-09T22:47:30.142Z,2.17
2017-12-09T22:49:58.125Z,2.70
2017-12-09T22:52:25.895Z,2.55
2017-12-09T22:54:53.989Z,5.07
2017-12-09T22:57:21.707Z,4.97
2017-12-09T22:59:49.330Z,5.15
2017-12-09T23:02:16.985Z,5.60
2017-12-09T23:05:01.224Z,4.30
2017-12-09T23:07:28.818Z,2.60
2017-12-09T23:09:56.617Z,2.85
2017-12-09T23:12:24.406Z,3.35
2017-12-09T23:14:52.057Z,2.60
2017-12-09T23:17:19.885Z,2.78
2017-12-09T23:19:47.626Z,3.00
2017-12-09T23:22:17.041Z,2.35
2017-12-09T23:24:44.865Z,1.75
2017-12-09T23:27:12.505Z,2.78
2017-12-09T23:29:42.533Z,2.00
2017-12-09T23:32:10.105Z,3.28
2017-12-09T23:34:38.233Z,2.40
2017-12-09T23:37:06.292Z,1.35
2017-12-09T23:39:34.133Z,9.48
2017-12-09T23:42:01.678Z,2.75
2017-12-09T23:44:29.653Z,2.30
2017-12-09T23:46:58.175Z,2.45
2017-12-09T23:49:26.908Z,2.67
2017-12-09T23:51:54.473Z,2.10
2017-12-09T23:54:22.132Z,3.97
2017-12-09T23:56:49.730Z,3.33
2017-12-09T23:59:17.529Z,3.42
